Terminal Aerodrome Forecast
Issued by NWS Nashville, TN

Current Version | Previous Version | Text Only | Print | Product List | Glossary Off
Versions: 1 2 3 4 5 6 7 8 9 10 11 12 13 14 15 16 17 18

000
FTUS44 KOHX 312000 AAA
TAFCSV
TAF AMD
KCSV 312034Z 3121/0118 31009KT 4SM -SHRA SCT009 OVC025
      TEMPO 3121/0101 BKN009
     FM010100 31014G24KT 5SM -SHSN BR OVC007
      TEMPO 0105/0109 3SM -SHSN BR
     FM011200 34013G23KT P6SM OVC009
      TEMPO 0112/0116 5SM -SHSN BR
     FM011600 34016KT P6SM BKN025=

USA.gov is the U.S. government's official web portal to all federal, state and local government web resources and services.